ESOK

Karlstad Airport

Karlstad, Sweden
TAF ESOK 161730Z 1618/1621 21003KT CAVOK
Issued Valid From Valid To
Jul-16 @ 17:30 UTC
(2 hours ago)
Jul-16 @ 18:00 UTC
(2 hours ago)
Jul-16 @ 21:00 UTC
(in an hour)
Jul-16 @ 18:00 to Jul-16 @ 21:00
TAF ESOK 161730Z 1618/1621 21003KT CAVOK
Wind Visibility Clouds Conditions
210° at 3 knots 10,000+ meters
  • No significant clouds
TAF ESOK 161730Z 1618/1621 21003KT CAVOK
Issued Jul-16 @ 17:30 UTC
(2 hours ago)
Valid From Jul-16 @ 18:00 UTC
(2 hours ago)
Valid To Jul-16 @ 21:00 UTC
(in an hour)
Jul-16 @ 18:00 - Jul-16 @ 21:00
Wind Visibility
210° at 3 knots 10,000+ meters
Clouds
  • No significant clouds
Conditions